GLD1705 SBSN-SBBV
Flight info
| Callsign | GLD1705 |
|---|---|
| Flight time | 1h 18m |
| Altitude | 43000 |
| Route | SOBID DCT LODOK UZ24 ILVIS DCT ANBIX |
| Aircraft | C25C/M-SDE2E3FGHRWXY/LB1 |
Departure
| Time | 2026-04-27 17:50 |
|---|---|
| Airport | Santarém - Maestro Wilson Fonseca International Airport (SBSN) |
Arrival
| Time | 2026-04-27 19:08 |
|---|---|
| Airport | Atlas Brasil Cantanhede International Airport (SBBV) |
| Time | Latitude | Longitude | Altitude | Speed | Heading |
|---|---|---|---|---|---|
| 2026-04-27 17:23 | -2.42410 | -54.78561 | 199 ft | 0 kts | 132° |
| 2026-04-27 17:44 | -2.42413 | -54.78562 | 199 ft | 1 kts | 208° |
| 2026-04-27 17:44 | -2.42411 | -54.78569 | 200 ft | 4 kts | 316° |
| 2026-04-27 17:44 | -2.42328 | -54.78625 | 200 ft | 20 kts | 327° |
| 2026-04-27 17:44 | -2.42234 | -54.78706 | 200 ft | 0 kts | 319° |
| 2026-04-27 17:46 | -2.42199 | -54.78740 | 201 ft | 22 kts | 316° |
| 2026-04-27 17:47 | -2.42188 | -54.78915 | 211 ft | 29 kts | 241° |
| 2026-04-27 17:47 | -2.42214 | -54.79050 | 202 ft | 35 kts | 269° |
| 2026-04-27 17:47 | -2.42250 | -54.79424 | 200 ft | 42 kts | 264° |
| 2026-04-27 17:47 | -2.42287 | -54.79711 | 199 ft | 41 kts | 262° |
| 2026-04-27 17:48 | -2.42344 | -54.79979 | 202 ft | 37 kts | 259° |
| 2026-04-27 17:48 | -2.42374 | -54.80223 | 207 ft | 29 kts | 271° |
| 2026-04-27 17:48 | -2.42399 | -54.80244 | 202 ft | 0 kts | 76° |
| 2026-04-27 17:48 | -2.42395 | -54.80232 | 206 ft | 0 kts | 83° |
| 2026-04-27 17:49 | -2.42393 | -54.80215 | 204 ft | 19 kts | 83° |
| 2026-04-27 17:49 | -2.42308 | -54.79745 | 204 ft | 117 kts | 80° |
| 2026-04-27 17:49 | -2.42138 | -54.78684 | 363 ft | 187 kts | 81° |
| 2026-04-27 17:50 | -2.41929 | -54.77139 | 687 ft | 253 kts | 81° |
| 2026-04-27 17:50 | -2.39766 | -54.74636 | 1679 ft | 235 kts | 20° |
| 2026-04-27 17:50 | -2.38127 | -54.74545 | 2340 ft | 244 kts | 351° |
| 2026-04-27 17:51 | -2.36481 | -54.75039 | 3452 ft | 248 kts | 341° |
| 2026-04-27 17:51 | -2.34865 | -54.75696 | 4585 ft | 253 kts | 338° |
| 2026-04-27 17:51 | -2.33216 | -54.76358 | 5670 ft | 257 kts | 340° |
| 2026-04-27 17:51 | -2.31527 | -54.77001 | 6707 ft | 262 kts | 340° |
| 2026-04-27 17:52 | -2.29803 | -54.77643 | 7656 ft | 268 kts | 340° |
| 2026-04-27 17:52 | -2.28044 | -54.78316 | 8595 ft | 274 kts | 340° |
| 2026-04-27 17:52 | -2.26238 | -54.79001 | 9425 ft | 285 kts | 340° |
| 2026-04-27 17:52 | -2.24973 | -54.79486 | 9682 ft | 303 kts | 340° |
| 2026-04-27 17:53 | -2.22296 | -54.80502 | 10772 ft | 309 kts | 340° |
| 2026-04-27 17:53 | -2.20274 | -54.81274 | 11610 ft | 313 kts | 340° |
| 2026-04-27 17:53 | -2.18224 | -54.82051 | 12404 ft | 317 kts | 340° |
| 2026-04-27 17:53 | -2.16205 | -54.82901 | 13164 ft | 322 kts | 333° |
| 2026-04-27 17:54 | -2.14327 | -54.84155 | 13896 ft | 327 kts | 323° |
| 2026-04-27 17:54 | -2.12686 | -54.85756 | 14544 ft | 332 kts | 311° |
| 2026-04-27 17:54 | -2.11350 | -54.87659 | 15201 ft | 337 kts | 300° |
| 2026-04-27 17:54 | -2.10386 | -54.89816 | 15846 ft | 342 kts | 289° |
| 2026-04-27 17:55 | -2.09857 | -54.92152 | 16483 ft | 347 kts | 277° |
| 2026-04-27 17:55 | -2.09750 | -54.94577 | 17099 ft | 351 kts | 271° |
| 2026-04-27 17:55 | -2.09675 | -54.97032 | 17710 ft | 354 kts | 271° |
| 2026-04-27 17:55 | -2.09607 | -54.99507 | 18297 ft | 358 kts | 271° |
| 2026-04-27 17:56 | -2.09543 | -55.02007 | 18790 ft | 362 kts | 271° |
| 2026-04-27 17:56 | -2.09482 | -55.04534 | 19295 ft | 365 kts | 271° |
| 2026-04-27 17:56 | -2.09435 | -55.06220 | 19619 ft | 368 kts | 271° |
| 2026-04-27 17:56 | -2.09369 | -55.08788 | 20134 ft | 371 kts | 271° |
| 2026-04-27 17:57 | -2.09278 | -55.12229 | 20780 ft | 376 kts | 271° |
| 2026-04-27 17:57 | -2.09206 | -55.14852 | 21275 ft | 379 kts | 271° |
| 2026-04-27 17:57 | -2.09161 | -55.16642 | 21602 ft | 382 kts | 271° |
| 2026-04-27 17:57 | -2.09091 | -55.19305 | 22072 ft | 385 kts | 271° |
| 2026-04-27 17:58 | -2.09001 | -55.22783 | 22667 ft | 390 kts | 271° |
| 2026-04-27 17:58 | -2.08949 | -55.24675 | 22979 ft | 392 kts | 271° |
| 2026-04-27 17:58 | -2.08879 | -55.27411 | 23433 ft | 395 kts | 271° |
| 2026-04-27 17:58 | -2.08804 | -55.30158 | 23815 ft | 398 kts | 271° |
| 2026-04-27 17:59 | -2.08733 | -55.32946 | 24212 ft | 400 kts | 271° |
| 2026-04-27 17:59 | -2.08657 | -55.35742 | 24594 ft | 403 kts | 271° |
| 2026-04-27 17:59 | -2.08441 | -55.38539 | 24961 ft | 406 kts | 283° |
| 2026-04-27 17:59 | -2.07373 | -55.41140 | 25356 ft | 406 kts | 299° |
| 2026-04-27 18:00 | -2.05984 | -55.43612 | 25727 ft | 408 kts | 302° |
| 2026-04-27 18:00 | -2.04506 | -55.45994 | 26104 ft | 410 kts | 303° |
| 2026-04-27 18:00 | -2.03013 | -55.48435 | 26505 ft | 411 kts | 302° |
| 2026-04-27 18:00 | -2.01585 | -55.50894 | 27156 ft | 405 kts | 301° |
| 2026-04-27 18:01 | -2.00174 | -55.53327 | 27651 ft | 405 kts | 302° |
| 2026-04-27 18:01 | -1.98724 | -55.55760 | 28012 ft | 408 kts | 302° |
| 2026-04-27 18:01 | -1.97270 | -55.58199 | 28493 ft | 407 kts | 302° |
| 2026-04-27 18:01 | -1.95829 | -55.60636 | 28985 ft | 407 kts | 302° |
| 2026-04-27 18:02 | -1.94396 | -55.63071 | 29482 ft | 406 kts | 302° |
| 2026-04-27 18:02 | -1.92960 | -55.65503 | 29973 ft | 406 kts | 302° |
| 2026-04-27 18:02 | -1.91536 | -55.67900 | 30394 ft | 405 kts | 302° |
| 2026-04-27 18:02 | -1.90109 | -55.70315 | 30841 ft | 403 kts | 302° |
| 2026-04-27 18:03 | -1.88686 | -55.72722 | 31287 ft | 401 kts | 302° |
| 2026-04-27 18:03 | -1.87292 | -55.75078 | 31733 ft | 400 kts | 301° |
| 2026-04-27 18:03 | -1.85855 | -55.77508 | 32185 ft | 398 kts | 301° |
| 2026-04-27 18:03 | -1.84454 | -55.79873 | 32625 ft | 397 kts | 301° |
| 2026-04-27 18:04 | -1.83042 | -55.82261 | 33076 ft | 396 kts | 301° |
| 2026-04-27 18:04 | -1.81642 | -55.84628 | 33525 ft | 394 kts | 301° |
| 2026-04-27 18:04 | -1.80266 | -55.86952 | 33964 ft | 393 kts | 301° |
| 2026-04-27 18:04 | -1.78857 | -55.89336 | 34349 ft | 392 kts | 301° |
| 2026-04-27 18:05 | -1.77469 | -55.91680 | 34720 ft | 391 kts | 301° |
| 2026-04-27 18:05 | -1.76084 | -55.94019 | 35096 ft | 391 kts | 301° |
| 2026-04-27 18:05 | -1.74704 | -55.96354 | 35481 ft | 390 kts | 301° |
| 2026-04-27 18:05 | -1.73326 | -55.98679 | 35873 ft | 389 kts | 300° |
| 2026-04-27 18:06 | -1.71947 | -56.01010 | 36273 ft | 388 kts | 300° |
| 2026-04-27 18:06 | -1.70572 | -56.03334 | 36670 ft | 388 kts | 300° |
| 2026-04-27 18:06 | -1.69200 | -56.05652 | 37060 ft | 387 kts | 300° |
| 2026-04-27 18:06 | -1.67850 | -56.07932 | 37428 ft | 386 kts | 300° |
| 2026-04-27 18:07 | -1.66467 | -56.10271 | 37829 ft | 385 kts | 300° |
| 2026-04-27 18:07 | -1.65122 | -56.12541 | 38202 ft | 385 kts | 300° |
| 2026-04-27 18:07 | -1.63758 | -56.14847 | 38580 ft | 384 kts | 300° |
| 2026-04-27 18:07 | -1.62399 | -56.17142 | 38920 ft | 383 kts | 300° |
| 2026-04-27 18:08 | -1.61043 | -56.19431 | 39270 ft | 381 kts | 300° |
| 2026-04-27 18:08 | -1.59699 | -56.21703 | 39630 ft | 379 kts | 300° |
| 2026-04-27 18:08 | -1.58357 | -56.23969 | 40001 ft | 377 kts | 300° |
| 2026-04-27 18:08 | -1.57021 | -56.26225 | 40359 ft | 376 kts | 300° |
| 2026-04-27 18:09 | -1.55706 | -56.28449 | 40695 ft | 375 kts | 300° |
| 2026-04-27 18:09 | -1.54379 | -56.30690 | 41037 ft | 374 kts | 300° |
| 2026-04-27 18:09 | -1.53056 | -56.32925 | 41373 ft | 373 kts | 300° |
| 2026-04-27 18:09 | -1.51736 | -56.35154 | 41717 ft | 372 kts | 300° |
| 2026-04-27 18:10 | -1.50418 | -56.37380 | 42062 ft | 370 kts | 300° |
| 2026-04-27 18:10 | -1.49110 | -56.39590 | 42430 ft | 368 kts | 300° |
| 2026-04-27 18:10 | -1.47810 | -56.41784 | 42800 ft | 366 kts | 300° |
| 2026-04-27 18:10 | -1.46515 | -56.43971 | 43151 ft | 364 kts | 300° |
| 2026-04-27 18:11 | -1.45227 | -56.46148 | 43496 ft | 363 kts | 300° |
| 2026-04-27 18:11 | -1.43960 | -56.48287 | 43835 ft | 361 kts | 300° |
| 2026-04-27 18:11 | -1.42684 | -56.50443 | 44178 ft | 359 kts | 300° |
| 2026-04-27 18:11 | -1.41414 | -56.52585 | 44506 ft | 358 kts | 300° |
| 2026-04-27 18:12 | -1.38828 | -56.56955 | 44271 ft | 372 kts | 300° |
| 2026-04-27 18:12 | -1.37503 | -56.59191 | 44075 ft | 378 kts | 300° |
| 2026-04-27 18:12 | -1.36148 | -56.61480 | 43877 ft | 387 kts | 300° |
| 2026-04-27 18:13 | -1.34757 | -56.63826 | 43623 ft | 397 kts | 300° |
| 2026-04-27 18:13 | -1.33332 | -56.66229 | 43361 ft | 407 kts | 300° |
| 2026-04-27 18:13 | -1.31875 | -56.68690 | 43113 ft | 416 kts | 300° |
| 2026-04-27 18:13 | -1.30393 | -56.71192 | 42989 ft | 421 kts | 300° |
| 2026-04-27 18:14 | -1.27395 | -56.76253 | 42945 ft | 425 kts | 300° |
| 2026-04-27 18:14 | -1.24389 | -56.81327 | 42933 ft | 428 kts | 300° |
| 2026-04-27 18:15 | -1.21341 | -56.86471 | 42923 ft | 431 kts | 300° |
| 2026-04-27 18:15 | -1.18280 | -56.91639 | 42915 ft | 433 kts | 300° |
| 2026-04-27 18:16 | -1.15207 | -56.96825 | 42924 ft | 434 kts | 300° |
| 2026-04-27 18:16 | -1.12121 | -57.02032 | 42917 ft | 435 kts | 300° |
| 2026-04-27 18:17 | -1.09030 | -57.07248 | 42920 ft | 436 kts | 300° |
| 2026-04-27 18:17 | -1.05932 | -57.12478 | 42919 ft | 437 kts | 300° |
| 2026-04-27 18:18 | -1.02853 | -57.17673 | 42924 ft | 435 kts | 300° |
| 2026-04-27 18:18 | -0.99797 | -57.22827 | 42913 ft | 427 kts | 300° |
| 2026-04-27 18:19 | -0.96795 | -57.27893 | 42904 ft | 420 kts | 300° |
| 2026-04-27 18:19 | -0.93833 | -57.32890 | 42906 ft | 417 kts | 299° |
| 2026-04-27 18:20 | -0.90895 | -57.37848 | 42912 ft | 417 kts | 299° |
| 2026-04-27 18:20 | -0.87940 | -57.42832 | 42905 ft | 416 kts | 300° |
| 2026-04-27 18:21 | -0.84984 | -57.47819 | 42911 ft | 416 kts | 299° |
| 2026-04-27 18:21 | -0.82033 | -57.52799 | 42910 ft | 416 kts | 299° |
| 2026-04-27 18:22 | -0.79078 | -57.57781 | 42911 ft | 416 kts | 299° |
| 2026-04-27 18:22 | -0.76130 | -57.62754 | 42908 ft | 416 kts | 299° |
| 2026-04-27 18:23 | -0.73195 | -57.67706 | 42909 ft | 416 kts | 299° |
| 2026-04-27 18:23 | -0.70244 | -57.72683 | 42911 ft | 416 kts | 299° |
| 2026-04-27 18:24 | -0.67277 | -57.77657 | 42908 ft | 416 kts | 302° |
| 2026-04-27 18:24 | -0.63527 | -57.82071 | 42911 ft | 417 kts | 312° |
| 2026-04-27 18:25 | -0.59546 | -57.86298 | 42914 ft | 417 kts | 312° |
| 2026-04-27 18:25 | -0.55560 | -57.90522 | 42921 ft | 417 kts | 312° |
| 2026-04-27 18:26 | -0.51575 | -57.94745 | 42917 ft | 417 kts | 312° |
| 2026-04-27 18:26 | -0.47594 | -57.98965 | 42914 ft | 417 kts | 312° |
| 2026-04-27 18:27 | -0.43608 | -58.03190 | 42914 ft | 418 kts | 312° |
| 2026-04-27 18:27 | -0.39610 | -58.07427 | 42922 ft | 419 kts | 312° |
| 2026-04-27 18:28 | -0.35624 | -58.11651 | 42921 ft | 420 kts | 312° |
| 2026-04-27 18:28 | -0.31612 | -58.15903 | 42922 ft | 421 kts | 312° |
| 2026-04-27 18:29 | -0.27586 | -58.20171 | 42924 ft | 421 kts | 312° |
| 2026-04-27 18:29 | -0.23558 | -58.24439 | 42927 ft | 422 kts | 312° |
| 2026-04-27 18:30 | -0.19553 | -58.28684 | 42931 ft | 422 kts | 311° |
| 2026-04-27 18:30 | -0.15517 | -58.32961 | 42922 ft | 423 kts | 311° |
| 2026-04-27 18:31 | -0.11477 | -58.37242 | 42930 ft | 423 kts | 311° |
| 2026-04-27 18:31 | -0.07438 | -58.41521 | 42923 ft | 423 kts | 312° |
| 2026-04-27 18:32 | -0.03415 | -58.45785 | 42926 ft | 423 kts | 311° |
| 2026-04-27 18:32 | 0.00631 | -58.50074 | 42924 ft | 423 kts | 311° |
| 2026-04-27 18:33 | 0.04683 | -58.54370 | 42923 ft | 423 kts | 311° |
| 2026-04-27 18:33 | 0.08702 | -58.58631 | 42924 ft | 423 kts | 311° |
| 2026-04-27 18:34 | 0.12748 | -58.62919 | 42927 ft | 423 kts | 311° |
| 2026-04-27 18:34 | 0.16784 | -58.67199 | 42919 ft | 423 kts | 311° |
| 2026-04-27 18:35 | 0.20823 | -58.71480 | 42920 ft | 423 kts | 311° |
| 2026-04-27 18:35 | 0.24863 | -58.75765 | 42923 ft | 423 kts | 311° |
| 2026-04-27 18:36 | 0.28906 | -58.80051 | 42920 ft | 423 kts | 311° |
| 2026-04-27 18:36 | 0.32945 | -58.84333 | 42925 ft | 423 kts | 311° |
| 2026-04-27 18:37 | 0.36986 | -58.88617 | 42915 ft | 424 kts | 311° |
| 2026-04-27 18:37 | 0.41003 | -58.92876 | 42915 ft | 424 kts | 311° |
| 2026-04-27 18:38 | 0.45050 | -58.97167 | 42919 ft | 424 kts | 311° |
| 2026-04-27 18:38 | 0.49096 | -59.01457 | 42912 ft | 424 kts | 311° |
| 2026-04-27 18:39 | 0.53144 | -59.05749 | 42917 ft | 424 kts | 311° |
| 2026-04-27 18:39 | 0.57193 | -59.10043 | 42921 ft | 424 kts | 311° |
| 2026-04-27 18:40 | 0.61213 | -59.14305 | 42916 ft | 424 kts | 311° |
| 2026-04-27 18:40 | 0.65260 | -59.18596 | 42915 ft | 424 kts | 311° |
| 2026-04-27 18:41 | 0.69310 | -59.22891 | 42918 ft | 424 kts | 311° |
| 2026-04-27 18:41 | 0.73366 | -59.27192 | 42922 ft | 424 kts | 311° |
| 2026-04-27 18:42 | 0.76050 | -59.30039 | 42916 ft | 425 kts | 311° |
| 2026-04-27 18:42 | 0.81580 | -59.35685 | 42913 ft | 425 kts | 316° |
| 2026-04-27 18:43 | 0.85901 | -59.39675 | 42914 ft | 425 kts | 315° |
| 2026-04-27 18:43 | 0.90241 | -59.43695 | 42919 ft | 425 kts | 315° |
| 2026-04-27 18:44 | 0.93860 | -59.47035 | 42914 ft | 425 kts | 315° |
| 2026-04-27 18:44 | 0.98211 | -59.51064 | 42911 ft | 425 kts | 315° |
| 2026-04-27 18:45 | 1.02561 | -59.55082 | 42920 ft | 425 kts | 315° |
| 2026-04-27 18:45 | 1.07603 | -59.59747 | 42920 ft | 425 kts | 315° |
| 2026-04-27 18:46 | 1.11242 | -59.63111 | 42915 ft | 425 kts | 315° |
| 2026-04-27 18:46 | 1.15553 | -59.67097 | 42912 ft | 425 kts | 315° |
| 2026-04-27 18:47 | 1.19894 | -59.71106 | 42919 ft | 424 kts | 315° |
| 2026-04-27 18:47 | 1.24229 | -59.75112 | 42914 ft | 424 kts | 315° |
| 2026-04-27 18:48 | 1.28562 | -59.79114 | 42912 ft | 424 kts | 315° |
| 2026-04-27 18:48 | 1.32901 | -59.83124 | 42916 ft | 424 kts | 315° |
| 2026-04-27 18:49 | 1.37204 | -59.87100 | 42915 ft | 424 kts | 315° |
| 2026-04-27 18:49 | 1.41536 | -59.91102 | 42912 ft | 423 kts | 315° |
| 2026-04-27 18:50 | 1.45865 | -59.95101 | 42916 ft | 423 kts | 315° |
| 2026-04-27 18:50 | 1.50185 | -59.99094 | 42918 ft | 423 kts | 315° |
| 2026-04-27 18:51 | 1.54508 | -60.03091 | 42921 ft | 423 kts | 315° |
| 2026-04-27 18:51 | 1.58828 | -60.07083 | 42912 ft | 423 kts | 315° |
| 2026-04-27 18:52 | 1.63124 | -60.11059 | 42912 ft | 423 kts | 315° |
| 2026-04-27 18:52 | 1.65254 | -60.13026 | 42906 ft | 408 kts | 315° |
| 2026-04-27 18:53 | 1.69293 | -60.16761 | 42470 ft | 390 kts | 314° |
| 2026-04-27 18:53 | 1.71295 | -60.18619 | 41582 ft | 396 kts | 315° |
| 2026-04-27 18:53 | 1.73324 | -60.20497 | 40731 ft | 400 kts | 315° |
| 2026-04-27 18:53 | 1.75378 | -60.22394 | 39864 ft | 404 kts | 315° |
| 2026-04-27 18:54 | 1.77452 | -60.24312 | 39031 ft | 408 kts | 316° |
| 2026-04-27 18:54 | 1.79538 | -60.26244 | 38165 ft | 410 kts | 316° |
| 2026-04-27 18:54 | 1.81640 | -60.28189 | 37234 ft | 412 kts | 317° |
| 2026-04-27 18:54 | 1.83718 | -60.30112 | 36358 ft | 413 kts | 318° |
| 2026-04-27 18:55 | 1.85833 | -60.32068 | 35507 ft | 415 kts | 318° |
| 2026-04-27 18:55 | 1.87952 | -60.34029 | 34682 ft | 415 kts | 319° |
| 2026-04-27 18:55 | 1.90073 | -60.35992 | 33886 ft | 415 kts | 319° |
| 2026-04-27 18:55 | 1.92196 | -60.37956 | 32979 ft | 415 kts | 319° |
| 2026-04-27 18:56 | 1.94324 | -60.39925 | 32106 ft | 419 kts | 319° |
| 2026-04-27 18:56 | 1.96490 | -60.41927 | 31264 ft | 431 kts | 319° |
| 2026-04-27 18:56 | 1.98729 | -60.43999 | 30450 ft | 445 kts | 319° |
| 2026-04-27 18:56 | 2.01032 | -60.46133 | 29594 ft | 455 kts | 319° |
| 2026-04-27 18:57 | 2.03373 | -60.48304 | 28682 ft | 463 kts | 319° |
| 2026-04-27 18:57 | 2.05755 | -60.50507 | 27794 ft | 468 kts | 319° |
| 2026-04-27 18:57 | 2.08151 | -60.52726 | 26928 ft | 472 kts | 319° |
| 2026-04-27 18:57 | 2.10570 | -60.54965 | 26089 ft | 474 kts | 319° |
| 2026-04-27 18:58 | 2.12956 | -60.57174 | 25287 ft | 474 kts | 319° |
| 2026-04-27 18:58 | 2.15350 | -60.59392 | 24488 ft | 460 kts | 319° |
| 2026-04-27 18:58 | 2.17689 | -60.61501 | 23700 ft | 443 kts | 323° |
| 2026-04-27 18:58 | 2.20334 | -60.62986 | 22782 ft | 432 kts | 340° |
| 2026-04-27 18:59 | 2.23117 | -60.64069 | 21877 ft | 425 kts | 342° |
| 2026-04-27 18:59 | 2.25891 | -60.65053 | 21003 ft | 420 kts | 343° |
| 2026-04-27 18:59 | 2.28627 | -60.66016 | 20151 ft | 415 kts | 342° |
| 2026-04-27 18:59 | 2.31325 | -60.67018 | 19329 ft | 411 kts | 341° |
| 2026-04-27 19:00 | 2.33993 | -60.68023 | 18527 ft | 407 kts | 341° |
| 2026-04-27 19:00 | 2.36606 | -60.68981 | 17678 ft | 404 kts | 341° |
| 2026-04-27 19:00 | 2.39236 | -60.69941 | 16778 ft | 400 kts | 341° |
| 2026-04-27 19:00 | 2.41835 | -60.70905 | 15903 ft | 396 kts | 341° |
| 2026-04-27 19:01 | 2.44417 | -60.71856 | 15060 ft | 389 kts | 341° |
| 2026-04-27 19:01 | 2.46926 | -60.72766 | 14236 ft | 378 kts | 341° |
| 2026-04-27 19:01 | 2.49370 | -60.73663 | 13387 ft | 369 kts | 341° |
| 2026-04-27 19:01 | 2.51755 | -60.74545 | 12496 ft | 362 kts | 341° |
| 2026-04-27 19:02 | 2.54100 | -60.75409 | 11622 ft | 357 kts | 341° |
| 2026-04-27 19:02 | 2.56419 | -60.76260 | 10773 ft | 354 kts | 341° |
| 2026-04-27 19:02 | 2.58717 | -60.77105 | 9941 ft | 351 kts | 341° |
| 2026-04-27 19:02 | 2.61000 | -60.77947 | 9061 ft | 347 kts | 341° |
| 2026-04-27 19:03 | 2.63231 | -60.78767 | 8195 ft | 344 kts | 342° |
| 2026-04-27 19:03 | 2.65462 | -60.79587 | 7338 ft | 333 kts | 342° |
| 2026-04-27 19:03 | 2.67568 | -60.80380 | 6493 ft | 315 kts | 340° |
| 2026-04-27 19:03 | 2.68848 | -60.81022 | 5927 ft | 307 kts | 334° |
| 2026-04-27 19:04 | 2.71324 | -60.82298 | 4766 ft | 293 kts | 336° |
| 2026-04-27 19:04 | 2.73149 | -60.83106 | 4016 ft | 279 kts | 347° |
| 2026-04-27 19:04 | 2.74953 | -60.83208 | 3955 ft | 242 kts | 7° |
| 2026-04-27 19:04 | 2.76480 | -60.82781 | 3717 ft | 221 kts | 26° |
| 2026-04-27 19:05 | 2.77732 | -60.81919 | 3242 ft | 218 kts | 44° |
| 2026-04-27 19:05 | 2.78652 | -60.80734 | 2799 ft | 216 kts | 59° |
| 2026-04-27 19:05 | 2.79348 | -60.79411 | 2383 ft | 214 kts | 63° |
| 2026-04-27 19:05 | 2.80010 | -60.78088 | 1985 ft | 210 kts | 63° |
| 2026-04-27 19:06 | 2.80633 | -60.76876 | 1727 ft | 182 kts | 63° |
| 2026-04-27 19:06 | 2.81181 | -60.75798 | 1493 ft | 167 kts | 63° |
| 2026-04-27 19:06 | 2.81690 | -60.74806 | 1278 ft | 151 kts | 60° |
| 2026-04-27 19:06 | 2.82155 | -60.73875 | 1093 ft | 148 kts | 63° |
| 2026-04-27 19:07 | 2.82606 | -60.73000 | 932 ft | 130 kts | 63° |
| 2026-04-27 19:07 | 2.82991 | -60.72237 | 761 ft | 115 kts | 62° |
| 2026-04-27 19:07 | 2.83345 | -60.71552 | 612 ft | 107 kts | 63° |
| 2026-04-27 19:07 | 2.83640 | -60.70947 | 451 ft | 89 kts | 64° |
| 2026-04-27 19:08 | 2.83933 | -60.70367 | 387 ft | 94 kts | 64° |
| 2026-04-27 19:08 | 2.84219 | -60.69801 | 273 ft | 87 kts | 66° |
| 2026-04-27 19:08 | 2.84457 | -60.69317 | 263 ft | 69 kts | 61° |
| 2026-04-27 19:08 | 2.84679 | -60.68986 | 266 ft | 35 kts | 45° |
| 2026-04-27 19:09 | 2.84669 | -60.68931 | 266 ft | 7 kts | 236° |
| 2026-04-27 19:09 | 2.84621 | -60.68951 | 266 ft | 7 kts | 152° |
| 2026-04-27 19:09 | 2.84573 | -60.68924 | 266 ft | 8 kts | 150° |
| 2026-04-27 19:09 | 2.84516 | -60.68895 | 266 ft | 13 kts | 155° |
| 2026-04-27 19:10 | 2.84460 | -60.68901 | 266 ft | 0 kts | 176° |